sensor_id;sensor_type;location;lat;lon;timestamp;temperature;humidity
4578;DHT22;2301;47.354;8.528;2023-05-10T00:01:43;18.30;84.90
4578;DHT22;2301;47.354;8.528;2023-05-10T00:04:10;18.40;85.10
4578;DHT22;2301;47.354;8.528;2023-05-10T00:06:37;18.40;85.10
4578;DHT22;2301;47.354;8.528;2023-05-10T00:09:04;18.50;85.30
4578;DHT22;2301;47.354;8.528;2023-05-10T00:11:32;18.50;85.10
4578;DHT22;2301;47.354;8.528;2023-05-10T00:13:59;18.50;84.70
4578;DHT22;2301;47.354;8.528;2023-05-10T00:16:26;18.40;84.30
4578;DHT22;2301;47.354;8.528;2023-05-10T00:18:52;18.40;84.40
4578;DHT22;2301;47.354;8.528;2023-05-10T00:21:20;18.30;84.20
4578;DHT22;2301;47.354;8.528;2023-05-10T00:23:46;18.40;84.80
4578;DHT22;2301;47.354;8.528;2023-05-10T00:26:13;18.30;83.80
4578;DHT22;2301;47.354;8.528;2023-05-10T00:28:41;18.20;83.70
4578;DHT22;2301;47.354;8.528;2023-05-10T00:31:08;18.30;84.50
4578;DHT22;2301;47.354;8.528;2023-05-10T00:33:35;18.30;84.30
4578;DHT22;2301;47.354;8.528;2023-05-10T00:36:02;18.40;84.30
4578;DHT22;2301;47.354;8.528;2023-05-10T00:38:29;18.40;84.20
4578;DHT22;2301;47.354;8.528;2023-05-10T00:40:56;18.50;84.00
4578;DHT22;2301;47.354;8.528;2023-05-10T00:43:23;18.50;83.70
4578;DHT22;2301;47.354;8.528;2023-05-10T00:45:51;18.50;83.50
4578;DHT22;2301;47.354;8.528;2023-05-10T00:48:19;18.50;83.10
4578;DHT22;2301;47.354;8.528;2023-05-10T00:50:46;18.50;83.00
4578;DHT22;2301;47.354;8.528;2023-05-10T00:53:14;18.50;83.10
4578;DHT22;2301;47.354;8.528;2023-05-10T00:55:41;18.50;83.00
4578;DHT22;2301;47.354;8.528;2023-05-10T00:58:08;18.50;82.70
4578;DHT22;2301;47.354;8.528;2023-05-10T01:00:35;18.60;82.90
4578;DHT22;2301;47.354;8.528;2023-05-10T01:03:04;18.50;82.80
4578;DHT22;2301;47.354;8.528;2023-05-10T01:05:31;18.50;82.80
4578;DHT22;2301;47.354;8.528;2023-05-10T01:07:58;18.40;82.60
4578;DHT22;2301;47.354;8.528;2023-05-10T01:10:25;18.30;83.10
4578;DHT22;2301;47.354;8.528;2023-05-10T01:12:52;18.20;83.60
4578;DHT22;2301;47.354;8.528;2023-05-10T01:15:20;18.20;83.50
4578;DHT22;2301;47.354;8.528;2023-05-10T01:17:48;18.10;83.30
4578;DHT22;2301;47.354;8.528;2023-05-10T01:20:16;18.10;83.70
4578;DHT22;2301;47.354;8.528;2023-05-10T01:23:07;18.10;83.90
4578;DHT22;2301;47.354;8.528;2023-05-10T01:26:10;18.10;84.20
4578;DHT22;2301;47.354;8.528;2023-05-10T01:29:04;18.10;84.30
4578;DHT22;2301;47.354;8.528;2023-05-10T01:34:35;18.00;84.00
4578;DHT22;2301;47.354;8.528;2023-05-10T01:37:07;17.90;84.40
4578;DHT22;2301;47.354;8.528;2023-05-10T01:39:39;17.90;84.70
4578;DHT22;2301;47.354;8.528;2023-05-10T01:42:11;17.90;85.00
4578;DHT22;2301;47.354;8.528;2023-05-10T01:44:45;18.00;84.70
4578;DHT22;2301;47.354;8.528;2023-05-10T01:47:23;18.00;84.60
4578;DHT22;2301;47.354;8.528;2023-05-10T01:49:55;18.00;84.90
4578;DHT22;2301;47.354;8.528;2023-05-10T01:52:26;18.00;85.30
4578;DHT22;2301;47.354;8.528;2023-05-10T01:55:02;18.00;84.80
4578;DHT22;2301;47.354;8.528;2023-05-10T01:57:34;18.00;84.30
4578;DHT22;2301;47.354;8.528;2023-05-10T02:00:02;18.00;84.60
4578;DHT22;2301;47.354;8.528;2023-05-10T02:02:34;18.00;84.70
4578;DHT22;2301;47.354;8.528;2023-05-10T02:05:04;18.00;84.60
4578;DHT22;2301;47.354;8.528;2023-05-10T02:07:32;17.90;84.60
4578;DHT22;2301;47.354;8.528;2023-05-10T02:10:01;17.80;84.40
4578;DHT22;2301;47.354;8.528;2023-05-10T02:12:29;17.80;84.50
4578;DHT22;2301;47.354;8.528;2023-05-10T02:14:59;17.80;84.90
4578;DHT22;2301;47.354;8.528;2023-05-10T02:17:30;17.80;84.90
4578;DHT22;2301;47.354;8.528;2023-05-10T02:19:58;17.60;84.80
4578;DHT22;2301;47.354;8.528;2023-05-10T02:22:27;17.50;85.50
4578;DHT22;2301;47.354;8.528;2023-05-10T02:24:55;17.60;86.00
4578;DHT22;2301;47.354;8.528;2023-05-10T02:27:23;17.60;85.80
4578;DHT22;2301;47.354;8.528;2023-05-10T02:29:51;17.60;85.90
4578;DHT22;2301;47.354;8.528;2023-05-10T02:32:18;17.60;86.00
4578;DHT22;2301;47.354;8.528;2023-05-10T02:34:47;17.60;85.90
4578;DHT22;2301;47.354;8.528;2023-05-10T02:37:19;17.60;85.90
4578;DHT22;2301;47.354;8.528;2023-05-10T02:39:46;17.60;86.10
4578;DHT22;2301;47.354;8.528;2023-05-10T02:42:16;17.60;85.70
4578;DHT22;2301;47.354;8.528;2023-05-10T02:44:46;17.60;85.60
4578;DHT22;2301;47.354;8.528;2023-05-10T02:47:14;17.50;85.20
4578;DHT22;2301;47.354;8.528;2023-05-10T02:49:41;17.40;85.30
4578;DHT22;2301;47.354;8.528;2023-05-10T02:52:13;17.40;85.70
4578;DHT22;2301;47.354;8.528;2023-05-10T02:54:48;17.40;86.40
4578;DHT22;2301;47.354;8.528;2023-05-10T02:57:24;17.40;86.70
4578;DHT22;2301;47.354;8.528;2023-05-10T02:59:52;17.40;86.00
4578;DHT22;2301;47.354;8.528;2023-05-10T03:02:20;17.40;86.30
4578;DHT22;2301;47.354;8.528;2023-05-10T03:04:47;17.40;86.50
4578;DHT22;2301;47.354;8.528;2023-05-10T03:07:16;17.40;86.40
4578;DHT22;2301;47.354;8.528;2023-05-10T03:09:44;17.40;85.70
4578;DHT22;2301;47.354;8.528;2023-05-10T03:12:15;17.30;86.50
4578;DHT22;2301;47.354;8.528;2023-05-10T03:14:49;17.30;87.10
4578;DHT22;2301;47.354;8.528;2023-05-10T03:17:25;17.30;87.00
4578;DHT22;2301;47.354;8.528;2023-05-10T03:19:56;17.30;86.30
4578;DHT22;2301;47.354;8.528;2023-05-10T03:22:31;17.20;86.20
4578;DHT22;2301;47.354;8.528;2023-05-10T03:25:00;17.20;86.50
4578;DHT22;2301;47.354;8.528;2023-05-10T03:27:31;17.20;86.90
4578;DHT22;2301;47.354;8.528;2023-05-10T03:29:59;17.30;87.20
4578;DHT22;2301;47.354;8.528;2023-05-10T03:32:26;17.40;87.40
4578;DHT22;2301;47.354;8.528;2023-05-10T03:34:53;17.40;87.00
4578;DHT22;2301;47.354;8.528;2023-05-10T03:37:20;17.40;86.60
4578;DHT22;2301;47.354;8.528;2023-05-10T03:39:48;17.50;86.70
4578;DHT22;2301;47.354;8.528;2023-05-10T03:42:15;17.40;86.20
4578;DHT22;2301;47.354;8.528;2023-05-10T03:44:43;17.40;86.20
4578;DHT22;2301;47.354;8.528;2023-05-10T03:47:10;17.40;86.40
4578;DHT22;2301;47.354;8.528;2023-05-10T03:49:37;17.40;85.50
4578;DHT22;2301;47.354;8.528;2023-05-10T03:52:04;17.40;86.00
4578;DHT22;2301;47.354;8.528;2023-05-10T03:54:30;17.40;86.20
4578;DHT22;2301;47.354;8.528;2023-05-10T03:56:59;17.30;85.70
4578;DHT22;2301;47.354;8.528;2023-05-10T03:59:26;17.40;85.90
4578;DHT22;2301;47.354;8.528;2023-05-10T04:01:53;17.30;86.00
4578;DHT22;2301;47.354;8.528;2023-05-10T04:04:20;17.40;86.40
4578;DHT22;2301;47.354;8.528;2023-05-10T04:06:47;17.40;86.10
4578;DHT22;2301;47.354;8.528;2023-05-10T04:09:14;17.30;85.70
4578;DHT22;2301;47.354;8.528;2023-05-10T04:11:42;17.20;85.50
4578;DHT22;2301;47.354;8.528;2023-05-10T04:14:10;17.20;86.00
4578;DHT22;2301;47.354;8.528;2023-05-10T04:16:37;17.20;86.10
4578;DHT22;2301;47.354;8.528;2023-05-10T04:19:03;17.10;86.80
4578;DHT22;2301;47.354;8.528;2023-05-10T04:21:30;17.10;86.10
4578;DHT22;2301;47.354;8.528;2023-05-10T04:23:57;17.10;87.70
4578;DHT22;2301;47.354;8.528;2023-05-10T04:26:24;17.00;86.70
4578;DHT22;2301;47.354;8.528;2023-05-10T04:28:51;17.00;86.80
4578;DHT22;2301;47.354;8.528;2023-05-10T04:31:19;17.00;86.90
4578;DHT22;2301;47.354;8.528;2023-05-10T04:33:47;17.10;87.00
4578;DHT22;2301;47.354;8.528;2023-05-10T04:36:13;17.10;87.40
4578;DHT22;2301;47.354;8.528;2023-05-10T04:38:40;17.10;87.00
4578;DHT22;2301;47.354;8.528;2023-05-10T04:41:09;17.20;87.20
4578;DHT22;2301;47.354;8.528;2023-05-10T04:43:38;17.20;87.90
4578;DHT22;2301;47.354;8.528;2023-05-10T04:46:08;17.20;87.10
4578;DHT22;2301;47.354;8.528;2023-05-10T04:48:40;17.20;86.00
4578;DHT22;2301;47.354;8.528;2023-05-10T04:51:07;17.20;85.60
4578;DHT22;2301;47.354;8.528;2023-05-10T04:53:34;17.20;85.30
4578;DHT22;2301;47.354;8.528;2023-05-10T04:56:01;17.20;85.40
4578;DHT22;2301;47.354;8.528;2023-05-10T04:58:28;17.20;85.90
4578;DHT22;2301;47.354;8.528;2023-05-10T05:00:55;17.20;86.10
4578;DHT22;2301;47.354;8.528;2023-05-10T05:03:21;17.30;86.40
4578;DHT22;2301;47.354;8.528;2023-05-10T05:05:50;17.30;86.00
4578;DHT22;2301;47.354;8.528;2023-05-10T05:08:17;17.30;85.30
4578;DHT22;2301;47.354;8.528;2023-05-10T05:10:43;17.30;85.30
4578;DHT22;2301;47.354;8.528;2023-05-10T05:13:12;17.40;85.10
4578;DHT22;2301;47.354;8.528;2023-05-10T05:15:39;17.30;85.20
4578;DHT22;2301;47.354;8.528;2023-05-10T05:18:06;17.40;85.60
4578;DHT22;2301;47.354;8.528;2023-05-10T05:20:33;17.40;85.20
4578;DHT22;2301;47.354;8.528;2023-05-10T05:23:01;17.40;85.00
4578;DHT22;2301;47.354;8.528;2023-05-10T05:25:28;17.40;84.40
4578;DHT22;2301;47.354;8.528;2023-05-10T05:27:55;17.40;84.70
4578;DHT22;2301;47.354;8.528;2023-05-10T05:30:22;17.40;85.10
4578;DHT22;2301;47.354;8.528;2023-05-10T05:32:49;17.40;84.20
4578;DHT22;2301;47.354;8.528;2023-05-10T05:35:16;17.40;83.80
4578;DHT22;2301;47.354;8.528;2023-05-10T05:37:42;17.40;84.30
4578;DHT22;2301;47.354;8.528;2023-05-10T05:40:13;17.20;83.10
4578;DHT22;2301;47.354;8.528;2023-05-10T05:42:40;17.30;84.40
4578;DHT22;2301;47.354;8.528;2023-05-10T05:45:08;17.30;84.90
4578;DHT22;2301;47.354;8.528;2023-05-10T05:47:38;17.30;85.00
4578;DHT22;2301;47.354;8.528;2023-05-10T05:50:06;17.30;85.20
4578;DHT22;2301;47.354;8.528;2023-05-10T05:52:33;17.40;84.70
4578;DHT22;2301;47.354;8.528;2023-05-10T05:54:59;17.40;84.70
4578;DHT22;2301;47.354;8.528;2023-05-10T05:57:28;17.40;84.20
4578;DHT22;2301;47.354;8.528;2023-05-10T05:59:54;17.40;84.10
4578;DHT22;2301;47.354;8.528;2023-05-10T06:02:21;17.40;84.10
4578;DHT22;2301;47.354;8.528;2023-05-10T06:04:48;17.40;84.50
4578;DHT22;2301;47.354;8.528;2023-05-10T06:07:15;17.50;84.30
4578;DHT22;2301;47.354;8.528;2023-05-10T06:09:42;17.50;84.20
4578;DHT22;2301;47.354;8.528;2023-05-10T06:12:09;17.50;84.40
4578;DHT22;2301;47.354;8.528;2023-05-10T06:14:38;17.50;84.40
4578;DHT22;2301;47.354;8.528;2023-05-10T06:17:05;17.50;83.90
4578;DHT22;2301;47.354;8.528;2023-05-10T06:19:32;17.50;83.70
4578;DHT22;2301;47.354;8.528;2023-05-10T06:21:59;17.50;83.80
4578;DHT22;2301;47.354;8.528;2023-05-10T06:24:26;17.50;83.80
4578;DHT22;2301;47.354;8.528;2023-05-10T06:26:53;17.50;83.50
4578;DHT22;2301;47.354;8.528;2023-05-10T06:29:19;17.50;83.50
4578;DHT22;2301;47.354;8.528;2023-05-10T06:31:48;17.60;83.70
4578;DHT22;2301;47.354;8.528;2023-05-10T06:34:14;17.60;83.50
4578;DHT22;2301;47.354;8.528;2023-05-10T06:36:41;17.60;83.00
4578;DHT22;2301;47.354;8.528;2023-05-10T06:39:08;17.50;81.20
4578;DHT22;2301;47.354;8.528;2023-05-10T06:41:37;17.40;81.80
4578;DHT22;2301;47.354;8.528;2023-05-10T06:44:04;17.40;82.70
4578;DHT22;2301;47.354;8.528;2023-05-10T06:46:31;17.60;83.90
4578;DHT22;2301;47.354;8.528;2023-05-10T06:48:59;17.70;82.70
4578;DHT22;2301;47.354;8.528;2023-05-10T06:51:26;17.60;80.60
4578;DHT22;2301;47.354;8.528;2023-05-10T06:53:53;17.50;80.40
4578;DHT22;2301;47.354;8.528;2023-05-10T06:56:19;17.30;79.80
4578;DHT22;2301;47.354;8.528;2023-05-10T06:58:47;17.10;79.30
4578;DHT22;2301;47.354;8.528;2023-05-10T07:01:14;17.00;79.70
4578;DHT22;2301;47.354;8.528;2023-05-10T07:03:40;16.90;80.60
4578;DHT22;2301;47.354;8.528;2023-05-10T07:06:09;16.80;81.40
4578;DHT22;2301;47.354;8.528;2023-05-10T07:08:36;16.80;81.50
4578;DHT22;2301;47.354;8.528;2023-05-10T07:11:03;16.70;82.20
4578;DHT22;2301;47.354;8.528;2023-05-10T07:13:30;16.70;82.60
4578;DHT22;2301;47.354;8.528;2023-05-10T07:15:57;16.60;82.10
4578;DHT22;2301;47.354;8.528;2023-05-10T07:18:25;16.60;81.70
4578;DHT22;2301;47.354;8.528;2023-05-10T07:20:52;16.50;81.50
4578;DHT22;2301;47.354;8.528;2023-05-10T07:23:20;16.50;81.50
4578;DHT22;2301;47.354;8.528;2023-05-10T07:25:47;16.50;81.70
4578;DHT22;2301;47.354;8.528;2023-05-10T07:28:15;16.50;81.70
4578;DHT22;2301;47.354;8.528;2023-05-10T07:30:43;16.50;82.00
4578;DHT22;2301;47.354;8.528;2023-05-10T07:33:12;16.50;83.10
4578;DHT22;2301;47.354;8.528;2023-05-10T07:35:41;16.40;82.00
4578;DHT22;2301;47.354;8.528;2023-05-10T07:38:09;16.20;81.50
4578;DHT22;2301;47.354;8.528;2023-05-10T07:40:39;16.10;81.70
4578;DHT22;2301;47.354;8.528;2023-05-10T07:43:07;16.10;81.50
4578;DHT22;2301;47.354;8.528;2023-05-10T07:45:34;16.00;81.70
4578;DHT22;2301;47.354;8.528;2023-05-10T07:48:02;16.00;82.10
4578;DHT22;2301;47.354;8.528;2023-05-10T07:50:28;15.90;82.60
4578;DHT22;2301;47.354;8.528;2023-05-10T07:52:55;16.00;84.00
4578;DHT22;2301;47.354;8.528;2023-05-10T07:55:30;16.00;83.60
4578;DHT22;2301;47.354;8.528;2023-05-10T07:58:00;16.00;84.00
4578;DHT22;2301;47.354;8.528;2023-05-10T08:00:27;15.90;84.30
4578;DHT22;2301;47.354;8.528;2023-05-10T08:02:54;15.90;84.90
4578;DHT22;2301;47.354;8.528;2023-05-10T08:05:22;15.80;84.70
4578;DHT22;2301;47.354;8.528;2023-05-10T08:07:49;15.70;84.90
4578;DHT22;2301;47.354;8.528;2023-05-10T08:10:19;15.60;85.70
4578;DHT22;2301;47.354;8.528;2023-05-10T08:12:46;15.60;85.80
4578;DHT22;2301;47.354;8.528;2023-05-10T08:15:14;15.60;86.10
4578;DHT22;2301;47.354;8.528;2023-05-10T08:17:41;15.60;86.10
4578;DHT22;2301;47.354;8.528;2023-05-10T08:20:08;15.60;85.00
4578;DHT22;2301;47.354;8.528;2023-05-10T08:22:38;15.60;85.00
4578;DHT22;2301;47.354;8.528;2023-05-10T08:25:06;15.60;85.10
4578;DHT22;2301;47.354;8.528;2023-05-10T08:27:32;15.60;85.10
4578;DHT22;2301;47.354;8.528;2023-05-10T08:29:59;15.60;85.00
4578;DHT22;2301;47.354;8.528;2023-05-10T08:32:28;15.60;84.80
4578;DHT22;2301;47.354;8.528;2023-05-10T08:34:55;15.60;84.20
4578;DHT22;2301;47.354;8.528;2023-05-10T08:37:23;15.50;84.10
4578;DHT22;2301;47.354;8.528;2023-05-10T08:39:50;15.50;84.20
4578;DHT22;2301;47.354;8.528;2023-05-10T08:42:19;15.50;84.50
4578;DHT22;2301;47.354;8.528;2023-05-10T08:44:48;15.60;85.00
4578;DHT22;2301;47.354;8.528;2023-05-10T08:47:16;15.60;84.80
4578;DHT22;2301;47.354;8.528;2023-05-10T08:49:47;15.60;84.70
4578;DHT22;2301;47.354;8.528;2023-05-10T08:52:17;15.60;84.40
4578;DHT22;2301;47.354;8.528;2023-05-10T08:54:44;15.70;84.40
4578;DHT22;2301;47.354;8.528;2023-05-10T08:57:11;15.70;84.50
4578;DHT22;2301;47.354;8.528;2023-05-10T08:59:38;15.70;84.20
4578;DHT22;2301;47.354;8.528;2023-05-10T09:02:05;15.80;84.70
4578;DHT22;2301;47.354;8.528;2023-05-10T09:04:32;15.80;84.70
4578;DHT22;2301;47.354;8.528;2023-05-10T09:07:01;15.80;84.40
4578;DHT22;2301;47.354;8.528;2023-05-10T09:09:28;15.80;83.90
4578;DHT22;2301;47.354;8.528;2023-05-10T09:11:55;15.80;84.20
4578;DHT22;2301;47.354;8.528;2023-05-10T09:14:23;15.80;84.80
4578;DHT22;2301;47.354;8.528;2023-05-10T09:16:51;15.80;85.00
4578;DHT22;2301;47.354;8.528;2023-05-10T09:19:19;15.80;84.90
4578;DHT22;2301;47.354;8.528;2023-05-10T09:21:46;15.80;85.00
4578;DHT22;2301;47.354;8.528;2023-05-10T09:24:15;15.80;85.10
4578;DHT22;2301;47.354;8.528;2023-05-10T09:26:46;15.80;85.40
4578;DHT22;2301;47.354;8.528;2023-05-10T09:29:14;15.90;85.80
4578;DHT22;2301;47.354;8.528;2023-05-10T09:31:45;16.00;86.10
4578;DHT22;2301;47.354;8.528;2023-05-10T09:34:16;16.10;86.00
4578;DHT22;2301;47.354;8.528;2023-05-10T09:36:51;16.10;84.90
4578;DHT22;2301;47.354;8.528;2023-05-10T09:39:20;16.10;84.40
4578;DHT22;2301;47.354;8.528;2023-05-10T09:41:47;16.10;84.30
4578;DHT22;2301;47.354;8.528;2023-05-10T09:44:17;16.10;84.30
4578;DHT22;2301;47.354;8.528;2023-05-10T09:46:49;16.10;84.20
4578;DHT22;2301;47.354;8.528;2023-05-10T09:49:16;16.10;84.20
4578;DHT22;2301;47.354;8.528;2023-05-10T09:51:43;16.10;83.90
4578;DHT22;2301;47.354;8.528;2023-05-10T09:54:11;16.10;84.20
4578;DHT22;2301;47.354;8.528;2023-05-10T09:56:40;16.00;83.20
4578;DHT22;2301;47.354;8.528;2023-05-10T09:59:08;16.10;83.50
4578;DHT22;2301;47.354;8.528;2023-05-10T10:01:36;16.10;83.30
4578;DHT22;2301;47.354;8.528;2023-05-10T10:04:04;16.10;82.60
4578;DHT22;2301;47.354;8.528;2023-05-10T10:06:36;16.20;82.30
4578;DHT22;2301;47.354;8.528;2023-05-10T10:09:04;16.20;82.10
4578;DHT22;2301;47.354;8.528;2023-05-10T10:11:31;16.30;81.60
4578;DHT22;2301;47.354;8.528;2023-05-10T10:13:59;16.20;81.30
4578;DHT22;2301;47.354;8.528;2023-05-10T10:16:27;16.20;81.20
4578;DHT22;2301;47.354;8.528;2023-05-10T10:18:55;16.20;81.40
4578;DHT22;2301;47.354;8.528;2023-05-10T10:21:22;16.40;81.60
4578;DHT22;2301;47.354;8.528;2023-05-10T10:23:49;16.20;80.70
4578;DHT22;2301;47.354;8.528;2023-05-10T10:26:17;16.20;81.20
4578;DHT22;2301;47.354;8.528;2023-05-10T10:28:49;16.20;81.70
4578;DHT22;2301;47.354;8.528;2023-05-10T10:31:26;16.20;81.00
4578;DHT22;2301;47.354;8.528;2023-05-10T10:34:00;16.20;80.60
4578;DHT22;2301;47.354;8.528;2023-05-10T10:36:28;16.10;79.50
4578;DHT22;2301;47.354;8.528;2023-05-10T10:38:59;16.20;79.60
4578;DHT22;2301;47.354;8.528;2023-05-10T10:41:33;16.20;79.30
4578;DHT22;2301;47.354;8.528;2023-05-10T10:44:34;16.20;80.00
4578;DHT22;2301;47.354;8.528;2023-05-10T10:47:05;16.30;79.60
4578;DHT22;2301;47.354;8.528;2023-05-10T10:49:38;16.30;80.30
4578;DHT22;2301;47.354;8.528;2023-05-10T10:52:30;16.50;80.80
4578;DHT22;2301;47.354;8.528;2023-05-10T10:55:00;16.60;79.80
4578;DHT22;2301;47.354;8.528;2023-05-10T10:57:29;16.60;79.30
4578;DHT22;2301;47.354;8.528;2023-05-10T11:00:20;16.80;78.90
4578;DHT22;2301;47.354;8.528;2023-05-10T11:02:50;17.00;78.00
4578;DHT22;2301;47.354;8.528;2023-05-10T11:05:25;17.10;77.10
4578;DHT22;2301;47.354;8.528;2023-05-10T11:07:53;17.20;75.80
4578;DHT22;2301;47.354;8.528;2023-05-10T11:10:20;17.20;75.20
4578;DHT22;2301;47.354;8.528;2023-05-10T11:12:58;17.20;75.50
4578;DHT22;2301;47.354;8.528;2023-05-10T11:15:29;17.20;74.60
4578;DHT22;2301;47.354;8.528;2023-05-10T11:17:58;17.10;73.60
4578;DHT22;2301;47.354;8.528;2023-05-10T11:20:28;17.10;74.00
4578;DHT22;2301;47.354;8.528;2023-05-10T11:23:11;17.00;74.10
4578;DHT22;2301;47.354;8.528;2023-05-10T11:25:42;17.00;74.80
4578;DHT22;2301;47.354;8.528;2023-05-10T11:28:10;16.90;73.90
4578;DHT22;2301;47.354;8.528;2023-05-10T11:30:38;16.80;73.90
4578;DHT22;2301;47.354;8.528;2023-05-10T11:33:07;16.80;75.00
4578;DHT22;2301;47.354;8.528;2023-05-10T11:35:38;16.80;75.30
4578;DHT22;2301;47.354;8.528;2023-05-10T11:38:06;16.80;75.70
4578;DHT22;2301;47.354;8.528;2023-05-10T11:40:33;16.80;76.30
4578;DHT22;2301;47.354;8.528;2023-05-10T11:43:00;16.80;74.60
4578;DHT22;2301;47.354;8.528;2023-05-10T11:45:28;16.90;74.60
4578;DHT22;2301;47.354;8.528;2023-05-10T11:47:57;16.90;75.00
4578;DHT22;2301;47.354;8.528;2023-05-10T11:50:25;17.00;74.70
4578;DHT22;2301;47.354;8.528;2023-05-10T11:52:53;17.00;74.20
4578;DHT22;2301;47.354;8.528;2023-05-10T11:55:21;17.00;76.20
4578;DHT22;2301;47.354;8.528;2023-05-10T11:57:51;16.90;77.30
4578;DHT22;2301;47.354;8.528;2023-05-10T12:00:19;16.90;78.10
4578;DHT22;2301;47.354;8.528;2023-05-10T12:02:47;16.80;78.10
4578;DHT22;2301;47.354;8.528;2023-05-10T12:05:14;16.80;78.50
4578;DHT22;2301;47.354;8.528;2023-05-10T12:07:43;16.70;78.90
4578;DHT22;2301;47.354;8.528;2023-05-10T12:10:11;16.60;79.40
4578;DHT22;2301;47.354;8.528;2023-05-10T12:12:41;16.50;79.90
4578;DHT22;2301;47.354;8.528;2023-05-10T12:15:12;16.50;80.80
4578;DHT22;2301;47.354;8.528;2023-05-10T12:17:39;16.50;81.10
4578;DHT22;2301;47.354;8.528;2023-05-10T12:20:14;16.50;81.70
4578;DHT22;2301;47.354;8.528;2023-05-10T12:22:44;16.60;81.90
4578;DHT22;2301;47.354;8.528;2023-05-10T12:25:11;16.60;82.10
4578;DHT22;2301;47.354;8.528;2023-05-10T12:27:39;16.70;81.90
4578;DHT22;2301;47.354;8.528;2023-05-10T12:30:07;16.70;81.60
4578;DHT22;2301;47.354;8.528;2023-05-10T12:32:38;16.80;81.90
4578;DHT22;2301;47.354;8.528;2023-05-10T12:35:05;16.90;82.10
4578;DHT22;2301;47.354;8.528;2023-05-10T12:37:32;16.90;82.10
4578;DHT22;2301;47.354;8.528;2023-05-10T12:40:09;16.90;81.70
4578;DHT22;2301;47.354;8.528;2023-05-10T12:42:38;16.90;81.80
4578;DHT22;2301;47.354;8.528;2023-05-10T12:45:06;16.90;82.00
4578;DHT22;2301;47.354;8.528;2023-05-10T12:47:34;16.90;82.40
4578;DHT22;2301;47.354;8.528;2023-05-10T12:50:02;16.90;82.70
4578;DHT22;2301;47.354;8.528;2023-05-10T12:52:29;17.00;82.50
4578;DHT22;2301;47.354;8.528;2023-05-10T12:54:58;16.90;82.50
4578;DHT22;2301;47.354;8.528;2023-05-10T12:57:26;17.00;82.90
4578;DHT22;2301;47.354;8.528;2023-05-10T12:59:54;17.00;82.90
4578;DHT22;2301;47.354;8.528;2023-05-10T13:02:21;17.00;82.80
4578;DHT22;2301;47.354;8.528;2023-05-10T13:04:49;17.00;82.60
4578;DHT22;2301;47.354;8.528;2023-05-10T13:07:16;17.00;82.90
4578;DHT22;2301;47.354;8.528;2023-05-10T13:09:42;17.00;83.50
4578;DHT22;2301;47.354;8.528;2023-05-10T13:12:09;17.10;84.10
4578;DHT22;2301;47.354;8.528;2023-05-10T13:14:38;17.00;83.60
4578;DHT22;2301;47.354;8.528;2023-05-10T13:17:06;16.90;83.60
4578;DHT22;2301;47.354;8.528;2023-05-10T13:19:32;16.70;83.60
4578;DHT22;2301;47.354;8.528;2023-05-10T13:21:59;16.80;84.30
4578;DHT22;2301;47.354;8.528;2023-05-10T13:24:26;16.70;84.20
4578;DHT22;2301;47.354;8.528;2023-05-10T13:26:53;16.70;84.20
4578;DHT22;2301;47.354;8.528;2023-05-10T13:29:20;16.70;84.50
4578;DHT22;2301;47.354;8.528;2023-05-10T13:31:49;16.70;85.00
4578;DHT22;2301;47.354;8.528;2023-05-10T13:34:16;16.70;85.80
4578;DHT22;2301;47.354;8.528;2023-05-10T13:36:46;16.70;85.30
4578;DHT22;2301;47.354;8.528;2023-05-10T13:39:13;16.70;85.40
4578;DHT22;2301;47.354;8.528;2023-05-10T13:41:40;16.70;85.40
4578;DHT22;2301;47.354;8.528;2023-05-10T13:44:07;16.80;85.00
4578;DHT22;2301;47.354;8.528;2023-05-10T13:46:33;16.80;84.70
4578;DHT22;2301;47.354;8.528;2023-05-10T13:49:02;16.90;85.20
4578;DHT22;2301;47.354;8.528;2023-05-10T13:51:29;16.90;84.80
4578;DHT22;2301;47.354;8.528;2023-05-10T13:53:57;16.90;84.40
4578;DHT22;2301;47.354;8.528;2023-05-10T13:56:24;16.80;83.90
4578;DHT22;2301;47.354;8.528;2023-05-10T13:58:51;16.70;83.10
4578;DHT22;2301;47.354;8.528;2023-05-10T14:01:17;16.60;83.70
4578;DHT22;2301;47.354;8.528;2023-05-10T14:03:45;16.60;85.10
4578;DHT22;2301;47.354;8.528;2023-05-10T14:06:15;16.60;85.40
4578;DHT22;2301;47.354;8.528;2023-05-10T14:08:46;16.60;86.50
4578;DHT22;2301;47.354;8.528;2023-05-10T14:11:15;16.60;86.70
4578;DHT22;2301;47.354;8.528;2023-05-10T14:13:42;16.60;86.70
4578;DHT22;2301;47.354;8.528;2023-05-10T14:16:08;16.50;86.70
4578;DHT22;2301;47.354;8.528;2023-05-10T14:18:36;16.50;86.90
4578;DHT22;2301;47.354;8.528;2023-05-10T14:21:03;16.60;87.20
4578;DHT22;2301;47.354;8.528;2023-05-10T14:23:31;16.60;88.10
4578;DHT22;2301;47.354;8.528;2023-05-10T14:25:58;16.50;88.30
4578;DHT22;2301;47.354;8.528;2023-05-10T14:28:25;16.50;87.80
4578;DHT22;2301;47.354;8.528;2023-05-10T14:30:52;16.50;86.90
4578;DHT22;2301;47.354;8.528;2023-05-10T14:33:19;16.50;86.70
4578;DHT22;2301;47.354;8.528;2023-05-10T14:35:46;16.40;86.00
4578;DHT22;2301;47.354;8.528;2023-05-10T14:38:13;16.40;86.50
4578;DHT22;2301;47.354;8.528;2023-05-10T14:40:41;16.50;86.80
4578;DHT22;2301;47.354;8.528;2023-05-10T14:43:09;16.50;86.70
4578;DHT22;2301;47.354;8.528;2023-05-10T14:45:36;16.60;86.80
4578;DHT22;2301;47.354;8.528;2023-05-10T14:48:04;16.70;86.80
4578;DHT22;2301;47.354;8.528;2023-05-10T14:50:34;16.60;86.00
4578;DHT22;2301;47.354;8.528;2023-05-10T14:53:04;16.60;85.30
4578;DHT22;2301;47.354;8.528;2023-05-10T14:55:34;16.60;84.80
4578;DHT22;2301;47.354;8.528;2023-05-10T14:58:07;16.50;84.50
4578;DHT22;2301;47.354;8.528;2023-05-10T15:00:33;16.60;85.50
4578;DHT22;2301;47.354;8.528;2023-05-10T15:03:01;16.60;85.80
4578;DHT22;2301;47.354;8.528;2023-05-10T15:05:28;16.60;86.10
4578;DHT22;2301;47.354;8.528;2023-05-10T15:07:55;16.60;85.90
4578;DHT22;2301;47.354;8.528;2023-05-10T15:10:22;16.70;85.50
4578;DHT22;2301;47.354;8.528;2023-05-10T15:12:50;16.60;84.20
4578;DHT22;2301;47.354;8.528;2023-05-10T15:15:18;16.60;83.80
4578;DHT22;2301;47.354;8.528;2023-05-10T15:17:45;16.60;83.90
4578;DHT22;2301;47.354;8.528;2023-05-10T15:20:12;16.60;84.40
4578;DHT22;2301;47.354;8.528;2023-05-10T15:22:39;16.50;85.30
4578;DHT22;2301;47.354;8.528;2023-05-10T15:25:07;16.50;85.50
4578;DHT22;2301;47.354;8.528;2023-05-10T15:27:35;16.20;85.90
4578;DHT22;2301;47.354;8.528;2023-05-10T15:30:02;15.80;84.90
4578;DHT22;2301;47.354;8.528;2023-05-10T15:32:30;15.50;85.00
4578;DHT22;2301;47.354;8.528;2023-05-10T15:34:58;15.40;85.30
4578;DHT22;2301;47.354;8.528;2023-05-10T15:37:31;15.30;85.90
4578;DHT22;2301;47.354;8.528;2023-05-10T15:40:00;15.20;86.80
4578;DHT22;2301;47.354;8.528;2023-05-10T15:42:29;15.20;87.10
4578;DHT22;2301;47.354;8.528;2023-05-10T15:44:57;15.20;87.80
4578;DHT22;2301;47.354;8.528;2023-05-10T15:47:25;15.20;88.70
4578;DHT22;2301;47.354;8.528;2023-05-10T15:49:53;15.20;89.50
4578;DHT22;2301;47.354;8.528;2023-05-10T15:52:20;15.20;88.70
4578;DHT22;2301;47.354;8.528;2023-05-10T15:54:48;15.20;86.50
4578;DHT22;2301;47.354;8.528;2023-05-10T15:57:15;15.20;86.10
4578;DHT22;2301;47.354;8.528;2023-05-10T15:59:42;15.20;85.50
4578;DHT22;2301;47.354;8.528;2023-05-10T16:02:09;15.20;85.30
4578;DHT22;2301;47.354;8.528;2023-05-10T16:04:36;15.20;85.50
4578;DHT22;2301;47.354;8.528;2023-05-10T16:07:06;15.20;86.70
4578;DHT22;2301;47.354;8.528;2023-05-10T16:09:36;15.10;87.60
4578;DHT22;2301;47.354;8.528;2023-05-10T16:12:04;15.10;88.40
4578;DHT22;2301;47.354;8.528;2023-05-10T16:14:31;15.10;89.50